createdAt,value
2024-02-02T00:01:52.072Z,16.45
2024-02-02T00:04:20.159Z,15.35
2024-02-02T00:06:48.166Z,19.60
2024-02-02T00:09:17.630Z,15.77
2024-02-02T00:11:45.572Z,17.20
2024-02-02T00:14:13.616Z,18.83
2024-02-02T00:16:41.512Z,12.82
2024-02-02T00:19:09.689Z,17.38
2024-02-02T00:21:37.657Z,14.80
2024-02-02T00:24:05.879Z,16.80
2024-02-02T00:26:35.455Z,15.85
2024-02-02T00:29:04.055Z,14.43
2024-02-02T00:31:31.966Z,17.83
2024-02-02T00:34:00.057Z,17.08
2024-02-02T00:36:28.047Z,17.60
2024-02-02T00:38:56.035Z,14.48
2024-02-02T00:41:23.987Z,16.50
2024-02-02T00:43:53.240Z,17.55
2024-02-02T00:46:21.176Z,19.15
2024-02-02T00:48:49.142Z,17.10
2024-02-02T00:51:17.145Z,21.33
2024-02-02T00:53:45.041Z,21.80
2024-02-02T00:56:12.967Z,16.63
2024-02-02T00:58:40.993Z,16.48
2024-02-02T01:01:10.336Z,15.20
2024-02-02T01:03:38.936Z,18.67
2024-02-02T01:06:07.234Z,14.98
2024-02-02T01:08:35.259Z,17.17
2024-02-02T01:11:04.021Z,20.38
2024-02-02T01:13:32.159Z,21.55
2024-02-02T01:16:00.071Z,13.77
2024-02-02T01:18:29.452Z,17.13
2024-02-02T01:20:57.598Z,13.90
2024-02-02T01:23:25.759Z,15.90
2024-02-02T01:25:53.646Z,18.70
2024-02-02T01:28:21.571Z,17.33
2024-02-02T01:30:49.497Z,18.00
2024-02-02T01:33:17.584Z,17.88
2024-02-02T01:35:46.922Z,13.15
2024-02-02T01:38:14.983Z,17.73
2024-02-02T01:40:43.411Z,19.77
2024-02-02T01:43:11.448Z,19.70
2024-02-02T01:45:39.738Z,18.63
2024-02-02T01:48:10.114Z,15.98
2024-02-02T01:50:38.637Z,18.65
2024-02-02T01:53:08.057Z,18.27
2024-02-02T01:55:36.207Z,20.25
2024-02-02T01:58:04.564Z,14.70
2024-02-02T02:00:32.892Z,15.45
2024-02-02T02:03:01.104Z,15.40
2024-02-02T02:05:29.178Z,15.30
2024-02-02T02:07:57.198Z,19.92
2024-02-02T02:10:26.607Z,14.57
2024-02-02T02:12:54.504Z,18.52
2024-02-02T02:15:24.697Z,18.42
2024-02-02T02:17:53.692Z,18.42
2024-02-02T02:20:23.947Z,17.38
2024-02-02T02:22:53.510Z,15.80
2024-02-02T02:25:21.498Z,19.48
2024-02-02T02:27:49.752Z,18.27
2024-02-02T02:30:18.184Z,19.50
2024-02-02T02:32:46.281Z,13.60
2024-02-02T02:35:14.298Z,17.88
2024-02-02T02:37:42.240Z,11.77
2024-02-02T02:40:12.574Z,19.45
2024-02-02T02:42:41.019Z,15.10
2024-02-02T02:45:09.411Z,15.10
2024-02-02T02:47:38.197Z,20.08
2024-02-02T02:50:07.454Z,16.38
2024-02-02T02:52:35.341Z,14.00
2024-02-02T02:55:03.429Z,15.82
2024-02-02T02:57:32.883Z,15.68
2024-02-02T03:00:00.992Z,20.42
2024-02-02T03:02:29.027Z,15.77
2024-02-02T03:04:57.011Z,10.77
2024-02-02T03:07:25.278Z,19.58
2024-02-02T03:09:53.163Z,18.95
2024-02-02T03:12:21.109Z,21.10
2024-02-02T03:14:50.547Z,18.83
2024-02-02T03:17:18.494Z,17.73
2024-02-02T03:19:46.477Z,14.70
2024-02-02T03:22:14.398Z,22.05
2024-02-02T03:24:42.365Z,15.93
2024-02-02T03:27:10.333Z,12.20
2024-02-02T03:29:38.329Z,15.00
2024-02-02T03:32:08.222Z,12.60
2024-02-02T03:34:36.294Z,15.30
2024-02-02T03:37:04.263Z,14.82
2024-02-02T03:39:32.261Z,20.02
2024-02-02T03:42:00.209Z,17.27
2024-02-02T03:44:28.168Z,13.52
2024-02-02T03:46:56.129Z,16.80
2024-02-02T03:49:25.507Z,13.80
2024-02-02T03:51:53.484Z,10.63
2024-02-02T03:54:21.508Z,14.48
2024-02-02T03:56:49.471Z,15.13
2024-02-02T03:59:17.731Z,13.20
2024-02-02T04:01:45.783Z,13.73
2024-02-02T04:04:13.899Z,19.15
2024-02-02T04:06:43.273Z,14.38
2024-02-02T04:09:11.503Z,15.73
2024-02-02T04:11:39.617Z,13.48
2024-02-02T04:14:07.891Z,12.70
2024-02-02T04:16:35.779Z,13.27
2024-02-02T04:19:03.963Z,12.18
2024-02-02T04:21:32.034Z,16.67
2024-02-02T04:24:01.407Z,18.33
2024-02-02T04:26:29.322Z,11.93
2024-02-02T04:28:57.253Z,18.17
2024-02-02T04:31:25.473Z,16.45
2024-02-02T04:33:53.542Z,15.00
2024-02-02T04:36:21.598Z,19.35
2024-02-02T04:38:49.537Z,18.65
2024-02-02T04:41:18.846Z,13.07
2024-02-02T04:43:46.767Z,21.88
2024-02-02T04:46:14.803Z,19.60
2024-02-02T04:48:42.789Z,15.07
2024-02-02T04:51:10.850Z,16.25
2024-02-02T04:53:38.782Z,13.43
2024-02-02T04:56:07.074Z,18.35
2024-02-02T04:58:36.368Z,12.23
2024-02-02T05:01:04.625Z,13.07
2024-02-02T05:03:33.294Z,12.93
2024-02-02T05:06:01.429Z,16.30
2024-02-02T05:08:29.558Z,14.32
2024-02-02T05:10:57.499Z,15.80
2024-02-02T05:13:25.466Z,12.95
2024-02-02T05:15:54.750Z,14.38
2024-02-02T05:18:22.794Z,13.27
2024-02-02T05:20:51.128Z,15.88
2024-02-02T05:23:19.093Z,12.65
2024-02-02T05:25:47.057Z,11.25
2024-02-02T05:28:15.180Z,13.85
2024-02-02T05:30:43.245Z,16.45
2024-02-02T05:33:12.667Z,16.27
2024-02-02T05:35:40.669Z,14.13
2024-02-02T05:38:08.653Z,16.15
2024-02-02T05:40:36.532Z,13.07
2024-02-02T05:43:04.568Z,11.00
2024-02-02T05:45:32.524Z,19.75
2024-02-02T05:48:00.542Z,14.55
2024-02-02T05:50:29.928Z,13.85
2024-02-02T05:52:57.879Z,19.58
2024-02-02T05:55:25.789Z,15.10
2024-02-02T05:57:53.693Z,17.08
2024-02-02T06:00:21.815Z,14.48
2024-02-02T06:02:49.896Z,18.25
2024-02-02T06:05:17.785Z,15.32
2024-02-02T06:07:47.110Z,13.20
2024-02-02T06:10:15.247Z,19.08
2024-02-02T06:12:43.246Z,23.02
2024-02-02T06:15:11.545Z,14.48
2024-02-02T06:17:39.570Z,16.23
2024-02-02T06:20:08.923Z,14.18
2024-02-02T06:22:36.966Z,19.10
2024-02-02T06:25:07.017Z,19.10
2024-02-02T06:27:35.094Z,13.80
2024-02-02T06:30:04.950Z,17.35
2024-02-02T06:32:33.394Z,16.88
2024-02-02T06:35:01.635Z,14.98
2024-02-02T06:37:30.095Z,20.90
2024-02-02T06:39:58.849Z,23.08
2024-02-02T06:42:28.268Z,15.70
2024-02-02T06:44:58.346Z,15.30
2024-02-02T06:47:26.445Z,20.15
2024-02-02T06:49:54.528Z,22.42
2024-02-02T06:52:22.889Z,19.35
2024-02-02T06:54:50.992Z,19.40
2024-02-02T06:57:19.450Z,18.00
2024-02-02T06:59:50.827Z,16.60
2024-02-02T07:02:20.848Z,21.10
2024-02-02T07:04:49.519Z,20.27
2024-02-02T07:07:17.697Z,17.33
2024-02-02T07:09:52.490Z,23.20
2024-02-02T07:12:58.246Z,19.80
2024-02-02T07:15:29.683Z,24.15
2024-02-02T07:17:59.129Z,22.15
2024-02-02T07:21:02.408Z,19.38
2024-02-02T07:23:35.472Z,22.17
2024-02-02T07:26:07.016Z,15.60
2024-02-02T07:28:40.262Z,17.95
2024-02-02T07:31:10.563Z,23.08
2024-02-02T07:33:42.057Z,20.40
2024-02-02T07:36:13.806Z,23.48
2024-02-02T07:38:50.291Z,18.55
2024-02-02T07:41:19.736Z,18.45
2024-02-02T07:43:48.990Z,25.80
2024-02-02T07:46:18.914Z,22.98
2024-02-02T07:48:48.216Z,22.27
2024-02-02T07:51:19.120Z,19.50
2024-02-02T07:53:48.012Z,26.70
2024-02-02T07:56:16.704Z,26.58
2024-02-02T07:58:44.624Z,21.75
2024-02-02T08:01:12.994Z,22.73
2024-02-02T08:03:42.555Z,27.10
2024-02-02T08:06:10.680Z,16.52
2024-02-02T08:08:38.843Z,16.42
2024-02-02T08:11:06.830Z,22.90
2024-02-02T08:13:34.888Z,23.95
2024-02-02T08:16:02.833Z,17.02
2024-02-02T08:18:32.034Z,19.35
2024-02-02T08:21:02.163Z,22.60
2024-02-02T08:23:30.347Z,16.27
2024-02-02T08:25:58.340Z,22.02
2024-02-02T08:28:26.346Z,27.80
2024-02-02T08:30:54.539Z,21.67
2024-02-02T08:33:22.655Z,22.20
2024-02-02T08:35:50.600Z,25.83
2024-02-02T08:38:20.159Z,23.48
2024-02-02T08:40:49.351Z,19.73
2024-02-02T08:43:20.522Z,25.17
2024-02-02T08:46:14.078Z,21.40
2024-02-02T08:48:45.746Z,21.42
2024-02-02T08:51:53.809Z,21.15
2024-02-02T08:54:37.931Z,23.83
2024-02-02T08:57:31.986Z,22.40
2024-02-02T09:00:06.200Z,19.90
2024-02-02T09:02:53.622Z,19.75
2024-02-02T09:05:24.053Z,19.83
2024-02-02T09:07:54.059Z,19.40
2024-02-02T09:11:22.442Z,20.75
2024-02-02T09:13:59.307Z,8.90
2024-02-02T09:16:39.136Z,22.40
2024-02-02T09:19:16.672Z,17.95
2024-02-02T09:21:44.599Z,20.23
2024-02-02T09:24:18.941Z,22.88
2024-02-02T09:26:48.282Z,21.75
2024-02-02T09:29:16.153Z,16.13
2024-02-02T09:31:44.124Z,20.13
2024-02-02T09:34:21.427Z,18.33
2024-02-02T09:36:49.509Z,15.38
2024-02-02T09:39:50.319Z,23.50
2024-02-02T09:42:36.934Z,22.55
2024-02-02T09:45:08.924Z,21.77
2024-02-02T09:47:56.554Z,23.58
2024-02-02T09:50:44.726Z,29.45
2024-02-02T09:53:29.603Z,19.65
2024-02-02T09:56:06.992Z,22.05
2024-02-02T09:58:40.693Z,22.02
2024-02-02T10:01:23.966Z,20.98
2024-02-02T10:04:03.330Z,24.23
2024-02-02T10:06:45.055Z,20.67
2024-02-02T10:09:29.734Z,27.67
2024-02-02T10:12:21.047Z,23.10
2024-02-02T10:15:24.362Z,36.58
2024-02-02T10:18:08.014Z,15.55
2024-02-02T10:20:43.380Z,20.23
2024-02-02T10:23:45.423Z,27.88
2024-02-02T10:26:51.173Z,21.67
2024-02-02T10:29:28.971Z,18.60
2024-02-02T10:32:16.401Z,24.27
2024-02-02T10:34:58.302Z,27.05
2024-02-02T10:37:35.832Z,21.70
2024-02-02T10:40:20.217Z,19.83
2024-02-02T10:43:10.361Z,16.67
2024-02-02T10:45:44.138Z,23.85
2024-02-02T10:48:32.806Z,24.30
2024-02-02T10:51:14.187Z,21.98
2024-02-02T10:53:56.529Z,19.77
2024-02-02T10:56:35.221Z,21.50
2024-02-02T10:59:16.023Z,24.60
2024-02-02T11:01:54.932Z,22.55
2024-02-02T11:04:32.796Z,21.45
2024-02-02T11:07:13.860Z,26.08
2024-02-02T11:09:53.820Z,26.05
2024-02-02T11:12:31.270Z,19.40
2024-02-02T11:15:10.692Z,29.80
2024-02-02T11:17:51.340Z,27.75
2024-02-02T11:20:33.953Z,21.50
2024-02-02T11:23:07.958Z,22.65
2024-02-02T11:25:42.278Z,22.95
2024-02-02T11:28:18.210Z,22.00
2024-02-02T11:30:59.010Z,25.33
2024-02-02T11:33:43.861Z,25.98
2024-02-02T11:36:25.946Z,15.95
2024-02-02T11:39:08.181Z,28.10
2024-02-02T11:41:38.384Z,25.73
2024-02-02T11:44:07.523Z,23.90
2024-02-02T11:46:37.230Z,20.75
2024-02-02T11:49:10.503Z,21.10
2024-02-02T11:51:47.314Z,24.00
2024-02-02T11:54:20.790Z,31.45
2024-02-02T11:56:52.494Z,23.63
2024-02-02T11:59:27.398Z,22.58
2024-02-02T12:02:06.484Z,24.10
2024-02-02T12:04:39.499Z,26.33
2024-02-02T12:07:21.098Z,25.55
2024-02-02T12:09:52.404Z,22.80
2024-02-02T12:14:52.719Z,22.55
2024-02-02T12:17:22.227Z,24.55
2024-02-02T12:19:50.476Z,20.35
2024-02-02T12:22:20.347Z,28.70
2024-02-02T12:24:48.398Z,24.13
2024-02-02T12:27:16.748Z,27.60
2024-02-02T12:29:45.615Z,26.05
2024-02-02T12:32:14.427Z,28.98
2024-02-02T12:34:42.851Z,29.05
2024-02-02T12:37:11.248Z,23.88
2024-02-02T12:39:40.734Z,28.02
2024-02-02T12:42:09.197Z,24.15
2024-02-02T12:44:37.209Z,24.48
2024-02-02T12:47:07.809Z,23.05
2024-02-02T12:49:38.195Z,27.73
2024-02-02T12:52:07.713Z,22.30
2024-02-02T12:54:35.964Z,30.13
2024-02-02T12:57:06.220Z,27.38
2024-02-02T12:59:34.264Z,20.90
2024-02-02T13:02:02.241Z,27.50
2024-02-02T13:04:30.383Z,28.25
2024-02-02T13:06:58.547Z,28.13
2024-02-02T13:09:30.544Z,21.05
2024-02-02T13:12:00.143Z,24.83
2024-02-02T13:14:30.005Z,24.30
2024-02-02T13:17:10.800Z,22.33
2024-02-02T13:19:43.126Z,19.73
2024-02-02T13:22:20.322Z,21.45
2024-02-02T13:27:19.656Z,22.25
2024-02-02T13:29:53.720Z,18.52
2024-02-02T13:32:22.779Z,19.23
2024-02-02T13:34:51.107Z,15.20
2024-02-02T13:37:30.503Z,18.73
2024-02-02T13:40:00.185Z,17.40
2024-02-02T13:42:29.650Z,16.73
2024-02-02T13:45:08.530Z,18.92
2024-02-02T13:47:37.685Z,20.52
2024-02-02T13:50:16.846Z,14.27
2024-02-02T13:52:50.133Z,17.52
2024-02-02T13:55:19.865Z,16.23
2024-02-02T13:57:49.460Z,19.05
2024-02-02T14:00:20.426Z,16.98
2024-02-02T14:02:48.500Z,14.70
2024-02-02T14:05:16.525Z,14.23
2024-02-02T14:07:54.949Z,14.18
2024-02-02T14:10:23.544Z,17.33
2024-02-02T14:12:51.741Z,16.80
2024-02-02T14:15:21.790Z,16.88
2024-02-02T14:17:49.761Z,15.43
2024-02-02T14:20:17.714Z,19.30
2024-02-02T14:22:46.058Z,14.70
2024-02-02T14:25:14.028Z,19.38
2024-02-02T14:27:42.983Z,14.55
2024-02-02T14:30:22.737Z,20.05
2024-02-02T14:32:56.188Z,15.07
2024-02-02T14:35:29.026Z,17.38
2024-02-02T14:37:57.003Z,12.63
2024-02-02T14:40:24.952Z,21.45
2024-02-02T14:42:52.866Z,15.15
2024-02-02T14:45:22.211Z,14.18
2024-02-02T14:47:50.213Z,20.15
2024-02-02T14:50:18.813Z,17.45
2024-02-02T14:52:46.771Z,19.55
2024-02-02T14:55:14.801Z,19.20
2024-02-02T14:57:43.385Z,17.23
2024-02-02T15:00:20.033Z,19.58
2024-02-02T15:02:50.947Z,16.95
2024-02-02T15:05:18.909Z,16.13
2024-02-02T15:07:46.922Z,16.75
2024-02-02T15:10:14.888Z,14.40
2024-02-02T15:12:43.602Z,18.50
2024-02-02T15:15:11.906Z,19.30
2024-02-02T15:17:40.096Z,17.65
2024-02-02T15:20:11.584Z,17.15
2024-02-02T15:22:39.933Z,23.00
2024-02-02T15:25:09.516Z,16.95
2024-02-02T15:27:39.275Z,13.98
2024-02-02T15:30:08.882Z,18.77
2024-02-02T15:32:36.838Z,16.80
2024-02-02T15:35:05.285Z,20.92
2024-02-02T15:37:34.602Z,18.33
2024-02-02T15:40:02.697Z,19.23
2024-02-02T15:42:34.234Z,19.25
2024-02-02T15:45:06.073Z,21.50
2024-02-02T15:47:35.392Z,22.08
2024-02-02T15:50:03.920Z,18.52
2024-02-02T15:52:32.054Z,20.65
2024-02-02T15:55:04.457Z,25.52
2024-02-02T15:57:32.757Z,21.90
2024-02-02T16:00:00.871Z,21.02
2024-02-02T16:02:28.828Z,22.17
2024-02-02T16:04:59.524Z,21.35
2024-02-02T16:07:27.636Z,22.77
2024-02-02T16:09:57.407Z,22.70
2024-02-02T16:12:26.759Z,24.58
2024-02-02T16:14:54.734Z,19.73
2024-02-02T16:17:22.752Z,18.65
2024-02-02T16:19:52.807Z,21.33
2024-02-02T16:22:22.779Z,20.65
2024-02-02T16:24:50.845Z,23.63
2024-02-02T16:27:19.131Z,24.00
2024-02-02T16:29:48.432Z,23.60
2024-02-02T16:32:16.372Z,21.33
2024-02-02T16:34:44.536Z,24.98
2024-02-02T16:37:12.540Z,23.50
2024-02-02T16:39:40.530Z,27.05
2024-02-02T16:42:08.520Z,24.70
2024-02-02T16:44:36.423Z,24.67
2024-02-02T16:47:05.857Z,20.20
2024-02-02T16:49:34.038Z,26.27
2024-02-02T16:52:03.466Z,24.17
2024-02-02T16:54:32.513Z,22.98
2024-02-02T16:57:00.640Z,24.30
2024-02-02T16:59:28.668Z,29.55
2024-02-02T17:01:56.556Z,28.88
2024-02-02T17:04:26.183Z,23.67
2024-02-02T17:06:54.294Z,27.40
2024-02-02T17:09:22.275Z,26.75
2024-02-02T17:11:50.170Z,30.63
2024-02-02T17:14:18.095Z,32.45
2024-02-02T17:16:46.061Z,27.08
2024-02-02T17:19:14.203Z,26.27
2024-02-02T17:21:44.200Z,26.77
2024-02-02T17:24:12.163Z,24.92
2024-02-02T17:26:40.859Z,25.80
2024-02-02T17:29:15.176Z,26.63
2024-02-02T17:31:47.453Z,26.27
2024-02-02T17:34:16.334Z,27.00
2024-02-02T17:36:46.223Z,26.48
2024-02-02T17:39:14.370Z,26.65
2024-02-02T17:41:42.400Z,24.45
2024-02-02T17:44:10.306Z,26.27
2024-02-02T17:46:38.363Z,22.25
2024-02-02T17:49:06.384Z,29.63
2024-02-02T17:51:34.468Z,24.80
2024-02-02T17:54:03.950Z,29.33
2024-02-02T17:56:31.935Z,25.20
2024-02-02T17:58:59.956Z,29.30
2024-02-02T18:01:28.017Z,28.05
2024-02-02T18:03:56.000Z,24.48
2024-02-02T18:06:24.190Z,26.38
2024-02-02T18:08:52.148Z,28.60
2024-02-02T18:11:21.416Z,28.38
2024-02-02T18:13:49.691Z,26.58
2024-02-02T18:16:17.880Z,33.05
2024-02-02T18:18:46.896Z,30.58
2024-02-02T18:21:15.277Z,28.60
2024-02-02T18:23:43.249Z,30.58
2024-02-02T18:26:11.210Z,27.02
2024-02-02T18:28:40.536Z,29.77
2024-02-02T18:31:08.454Z,29.33
2024-02-02T18:33:36.660Z,26.13
2024-02-02T18:36:05.054Z,27.02
2024-02-02T18:38:33.984Z,25.73
2024-02-02T18:41:01.944Z,23.40
2024-02-02T18:43:29.870Z,24.88
2024-02-02T18:45:59.134Z,32.30
2024-02-02T18:48:27.254Z,27.00
2024-02-02T18:50:55.250Z,23.88
2024-02-02T18:53:23.174Z,27.33
2024-02-02T18:55:53.150Z,27.30
2024-02-02T18:58:26.267Z,25.88
2024-02-02T19:01:01.298Z,28.63
2024-02-02T19:03:29.374Z,23.33
2024-02-02T19:06:00.664Z,27.70
2024-02-02T19:08:28.639Z,33.30
2024-02-02T19:10:56.657Z,26.17
2024-02-02T19:13:24.684Z,27.67
2024-02-02T19:15:52.663Z,26.30
2024-02-02T19:18:22.080Z,26.63
2024-02-02T19:20:50.050Z,27.17
2024-02-02T19:23:17.953Z,27.05
2024-02-02T19:25:45.867Z,27.58
2024-02-02T19:28:13.748Z,28.38
2024-02-02T19:30:43.052Z,27.13
2024-02-02T19:33:11.179Z,25.08
2024-02-02T19:35:40.708Z,25.88
2024-02-02T19:38:08.787Z,26.73
2024-02-02T19:40:36.876Z,26.27
2024-02-02T19:43:05.154Z,28.85
2024-02-02T19:45:33.095Z,27.92
2024-02-02T19:48:01.231Z,31.27
2024-02-02T19:50:29.217Z,27.60
2024-02-02T19:52:58.971Z,30.17
2024-02-02T19:55:28.670Z,30.02
2024-02-02T19:57:56.617Z,34.00
2024-02-02T20:00:24.854Z,31.48
2024-02-02T20:02:53.077Z,27.27
2024-02-02T20:05:24.176Z,31.20
2024-02-02T20:07:53.724Z,32.88
2024-02-02T20:10:24.191Z,33.20
2024-02-02T20:12:52.207Z,36.42
2024-02-02T20:15:20.197Z,30.20
2024-02-02T20:17:48.185Z,30.95
2024-02-02T20:20:16.484Z,33.75
2024-02-02T20:22:44.718Z,32.47
2024-02-02T20:25:12.807Z,32.47
2024-02-02T20:27:42.160Z,34.55
2024-02-02T20:30:11.486Z,31.55
2024-02-02T20:32:39.603Z,32.03
2024-02-02T20:35:08.101Z,35.55
2024-02-02T20:37:36.097Z,31.65
2024-02-02T20:40:05.838Z,26.38
2024-02-02T20:42:33.806Z,30.45
2024-02-02T20:45:05.656Z,31.65
2024-02-02T20:47:34.171Z,28.45
2024-02-02T20:50:02.196Z,30.48
2024-02-02T20:52:30.176Z,27.98
2024-02-02T20:55:00.197Z,29.33
2024-02-02T20:57:28.204Z,29.58
2024-02-02T20:59:56.327Z,29.42
2024-02-02T21:02:25.619Z,28.95
2024-02-02T21:04:53.675Z,30.10
2024-02-02T21:07:21.800Z,30.35
2024-02-02T21:09:50.020Z,31.50
2024-02-02T21:12:18.022Z,28.75
2024-02-02T21:14:49.396Z,30.42
2024-02-02T21:17:18.174Z,28.45
2024-02-02T21:19:47.500Z,30.20
2024-02-02T21:22:15.586Z,28.50
2024-02-02T21:24:43.607Z,23.85
2024-02-02T21:27:11.879Z,23.73
2024-02-02T21:29:39.785Z,26.88
2024-02-02T21:32:07.926Z,24.50
2024-02-02T21:34:35.996Z,26.35
2024-02-02T21:37:05.845Z,29.98
2024-02-02T21:39:33.800Z,22.40
2024-02-02T21:42:01.861Z,23.42
2024-02-02T21:44:29.874Z,25.80
2024-02-02T21:46:59.515Z,26.02
2024-02-02T21:49:27.648Z,26.27
2024-02-02T21:51:55.931Z,24.50
2024-02-02T21:54:25.242Z,26.33
2024-02-02T21:56:53.767Z,28.83
2024-02-02T21:59:21.681Z,29.15
2024-02-02T22:01:49.558Z,30.35
2024-02-02T22:04:18.697Z,26.48
2024-02-02T22:06:47.256Z,29.33
2024-02-02T22:09:15.373Z,29.13
2024-02-02T22:11:44.881Z,26.27
2024-02-02T22:14:12.809Z,26.88
2024-02-02T22:16:40.708Z,28.80
2024-02-02T22:19:08.695Z,29.98
2024-02-02T22:21:37.066Z,29.67
2024-02-02T22:24:05.797Z,33.00
2024-02-02T22:26:33.721Z,30.90
2024-02-02T22:29:03.013Z,26.98
2024-02-02T22:31:30.902Z,28.48
2024-02-02T22:33:58.890Z,29.73
2024-02-02T22:36:26.899Z,27.20
2024-02-02T22:38:56.024Z,26.23
2024-02-02T22:41:32.918Z,27.25
2024-02-02T22:44:04.047Z,28.45
2024-02-02T22:46:31.810Z,28.33
2024-02-02T22:49:00.073Z,26.70
2024-02-02T22:51:28.205Z,26.30
2024-02-02T22:53:56.174Z,26.45
2024-02-02T22:56:24.153Z,25.65
2024-02-02T22:58:52.069Z,25.08
2024-02-02T23:01:21.546Z,25.20
2024-02-02T23:03:49.665Z,27.52
2024-02-02T23:06:17.974Z,25.58
2024-02-02T23:08:45.975Z,24.42
2024-02-02T23:11:15.729Z,25.02
2024-02-02T23:13:43.708Z,23.55
2024-02-02T23:16:12.308Z,25.85
2024-02-02T23:18:41.883Z,23.77
2024-02-02T23:21:09.931Z,20.42
2024-02-02T23:23:37.874Z,26.70
2024-02-02T23:26:06.024Z,23.50
2024-02-02T23:28:33.952Z,20.95
2024-02-02T23:31:02.536Z,22.25
2024-02-02T23:33:30.796Z,26.25
2024-02-02T23:36:00.220Z,24.17
2024-02-02T23:38:28.137Z,21.52
2024-02-02T23:40:56.878Z,19.77
2024-02-02T23:43:25.004Z,22.38
2024-02-02T23:45:53.057Z,23.98
2024-02-02T23:48:21.155Z,27.83
2024-02-02T23:50:49.121Z,21.65
2024-02-02T23:53:18.399Z,20.95
2024-02-02T23:55:46.353Z,20.85
2024-02-02T23:58:14.289Z,24.05
